createdAt,value
2017-04-08T00:00:59.097Z,1022.4
2017-04-08T00:02:01.444Z,1022.4
2017-04-08T00:03:04.543Z,1022.4
2017-04-08T00:04:06.885Z,1022.4
2017-04-08T00:05:09.732Z,1022.4
2017-04-08T00:06:12.076Z,1022.4
2017-04-08T00:07:14.789Z,1022.3
2017-04-08T00:08:17.940Z,1022.4
2017-04-08T00:09:20.283Z,1022.4
2017-04-08T00:11:25.532Z,1022.4
2017-04-08T00:12:28.384Z,1022.4
2017-04-08T00:13:30.976Z,1022.4
2017-04-08T00:14:33.825Z,1022.4
2017-04-08T00:15:36.173Z,1022.4
2017-04-08T00:16:39.014Z,1022.4
2017-04-08T00:17:41.730Z,1022.4
2017-04-08T00:18:44.384Z,1022.5
2017-04-08T00:19:46.729Z,1022.4
2017-04-08T00:20:49.442Z,1022.5
2017-04-08T00:21:52.291Z,1022.5
2017-04-08T00:22:55.190Z,1022.5
2017-04-08T00:23:57.741Z,1022.5
2017-04-08T00:25:00.089Z,1022.5
2017-04-08T00:26:02.939Z,1022.5
2017-04-08T00:27:05.789Z,1022.5
2017-04-08T00:28:08.127Z,1022.5
2017-04-08T00:29:11.228Z,1022.6
2017-04-08T00:30:13.576Z,1022.6
2017-04-08T00:31:16.426Z,1022.6
2017-04-08T00:32:18.770Z,1022.6
2017-04-08T00:33:21.613Z,1022.6
2017-04-08T00:34:24.722Z,1022.7
2017-04-08T00:35:27.071Z,1022.7
2017-04-08T00:36:29.412Z,1022.6
2017-04-08T00:37:32.263Z,1022.6
2017-04-08T00:38:35.115Z,1022.6
2017-04-08T00:39:37.710Z,1022.6
2017-04-08T00:40:40.562Z,1022.7
2017-04-08T00:41:42.910Z,1022.7
2017-04-08T00:42:45.626Z,1022.7
2017-04-08T00:43:48.480Z,1022.6
2017-04-08T00:44:51.128Z,1022.6
2017-04-08T00:45:53.471Z,1022.7
2017-04-08T00:46:56.317Z,1022.7
2017-04-08T00:47:59.161Z,1022.7
2017-04-08T00:49:01.505Z,1022.7
2017-04-08T00:50:04.655Z,1022.7
2017-04-08T00:51:06.870Z,1022.7
2017-04-08T00:52:09.717Z,1022.7
2017-04-08T00:53:12.564Z,1022.7
2017-04-08T00:54:14.909Z,1022.7
2017-04-08T00:55:18.011Z,1022.7
2017-04-08T00:56:20.351Z,1022.7
2017-04-08T00:57:23.207Z,1022.8
2017-04-08T00:58:25.556Z,1022.7
2017-04-08T00:59:28.405Z,1022.8
2017-04-08T01:00:31.429Z,1022.8
2017-04-08T01:01:33.641Z,1022.7
2017-04-08T01:02:36.487Z,1022.8
2017-04-08T01:03:38.830Z,1022.8
2017-04-08T01:04:41.670Z,1022.8
2017-04-08T01:05:44.775Z,1022.8
2017-04-08T01:06:46.988Z,1022.8
2017-04-08T01:07:49.834Z,1022.8
2017-04-08T01:08:52.181Z,1022.8
2017-04-08T01:09:55.029Z,1022.7
2017-04-08T01:10:58.178Z,1022.7
2017-04-08T01:12:00.523Z,1022.7
2017-04-08T01:13:02.862Z,1022.7
2017-04-08T01:14:05.714Z,1022.7
2017-04-08T01:15:08.425Z,1022.7
2017-04-08T01:16:11.078Z,1022.8
2017-04-08T01:17:13.423Z,1022.8
2017-04-08T01:18:16.275Z,1022.7
2017-04-08T01:19:19.121Z,1022.7
2017-04-08T01:21:24.633Z,1022.7
2017-04-08T01:22:26.975Z,1022.7
2017-04-08T01:23:29.823Z,1022.8
2017-04-08T01:24:32.171Z,1022.8
2017-04-08T01:25:35.026Z,1022.7
2017-04-08T01:26:37.676Z,1022.7
2017-04-08T01:27:40.522Z,1022.7
2017-04-08T01:28:42.866Z,1022.7
2017-04-08T01:29:45.714Z,1022.7
2017-04-08T01:30:48.057Z,1022.6
2017-04-08T01:31:51.152Z,1022.6
2017-04-08T01:32:53.513Z,1022.6
2017-04-08T01:33:56.422Z,1022.6
2017-04-08T01:34:58.762Z,1022.6
2017-04-08T01:36:01.397Z,1022.6
2017-04-08T01:37:04.491Z,1022.6
2017-04-08T01:38:06.701Z,1022.6
2017-04-08T01:39:09.549Z,1022.5
2017-04-08T01:40:12.396Z,1022.6
2017-04-08T01:41:14.737Z,1022.6
2017-04-08T01:42:17.840Z,1022.5
2017-04-08T01:43:20.188Z,1022.5
2017-04-08T01:44:23.028Z,1022.6
2017-04-08T01:45:25.373Z,1022.6
2017-04-08T01:46:28.220Z,1022.5
2017-04-08T01:47:31.377Z,1022.6
2017-04-08T01:48:33.729Z,1022.6
2017-04-08T01:49:36.073Z,1022.6
2017-04-08T01:50:38.917Z,1022.6
2017-04-08T01:51:41.260Z,1022.6
2017-04-08T01:52:44.364Z,1022.7
2017-04-08T01:53:46.766Z,1022.6
2017-04-08T01:54:49.348Z,1022.7
2017-04-08T01:56:54.600Z,1022.7
2017-04-08T01:57:57.752Z,1022.6
2017-04-08T01:59:00.097Z,1022.7
2017-04-08T02:00:02.945Z,1022.7
2017-04-08T02:01:05.292Z,1022.7
2017-04-08T02:02:08.141Z,1022.7
2017-04-08T02:03:11.237Z,1022.7
2017-04-08T02:04:13.580Z,1022.7
2017-04-08T02:05:15.918Z,1022.7
2017-04-08T02:06:18.558Z,1022.7
2017-04-08T02:07:21.405Z,1022.7
2017-04-08T02:09:26.957Z,1022.7
2017-04-08T02:10:29.299Z,1022.7
2017-04-08T02:11:32.142Z,1022.8
2017-04-08T02:12:34.486Z,1022.7
2017-04-08T02:13:37.335Z,1022.7
2017-04-08T02:14:40.433Z,1022.7
2017-04-08T02:15:42.772Z,1022.7
2017-04-08T02:16:45.117Z,1022.7
2017-04-08T02:17:48.022Z,1022.7
2017-04-08T02:18:50.747Z,1022.8
2017-04-08T02:19:53.345Z,1022.8
2017-04-08T02:20:55.697Z,1022.8
2017-04-08T02:21:58.414Z,1022.8
2017-04-08T02:23:01.296Z,1022.8
2017-04-08T02:24:03.667Z,1022.8
2017-04-08T02:25:06.773Z,1022.8
2017-04-08T02:26:09.115Z,1022.8
2017-04-08T02:27:11.963Z,1022.8
2017-04-08T02:28:14.320Z,1022.8
2017-04-08T02:29:17.171Z,1022.8
2017-04-08T02:30:20.326Z,1022.8
2017-04-08T02:31:22.672Z,1022.8
2017-04-08T02:32:25.020Z,1022.9
2017-04-08T02:33:27.870Z,1022.9
2017-04-08T02:34:30.216Z,1022.8
2017-04-08T02:36:36.284Z,1022.8
2017-04-08T02:37:38.636Z,1022.8
2017-04-08T02:38:40.980Z,1022.9
2017-04-08T02:39:43.833Z,1022.9
2017-04-08T02:40:46.183Z,1022.8
2017-04-08T02:41:49.149Z,1022.8
2017-04-08T02:42:51.496Z,1022.9
2017-04-08T02:43:54.210Z,1022.9
2017-04-08T02:44:57.057Z,1022.8
2017-04-08T02:45:59.771Z,1022.8
2017-04-08T02:47:02.373Z,1022.8
2017-04-08T02:48:04.718Z,1022.8
2017-04-08T02:49:07.565Z,1022.8
2017-04-08T02:50:10.411Z,1022.8
2017-04-08T02:51:13.122Z,1022.8
2017-04-08T02:52:15.719Z,1022.8
2017-04-08T02:53:18.065Z,1022.8
2017-04-08T02:54:20.916Z,1022.8
2017-04-08T02:55:23.764Z,1022.8
2017-04-08T02:56:26.106Z,1022.8
2017-04-08T02:57:29.129Z,1022.8
2017-04-08T02:58:31.480Z,1022.8
2017-04-08T02:59:34.331Z,1022.8
2017-04-08T03:00:36.904Z,1022.9
2017-04-08T03:01:39.249Z,1022.8
2017-04-08T03:02:42.394Z,1022.8
2017-04-08T03:03:44.738Z,1022.9
2017-04-08T03:04:47.461Z,1022.8
2017-04-08T03:05:49.804Z,1022.8
2017-04-08T03:06:52.692Z,1022.8
2017-04-08T03:07:55.850Z,1022.8
2017-04-08T03:08:58.195Z,1022.8
2017-04-08T03:10:00.571Z,1022.8
2017-04-08T03:11:03.478Z,1022.8
2017-04-08T03:12:05.826Z,1022.8
2017-04-08T03:13:08.839Z,1022.9
2017-04-08T03:14:11.186Z,1022.8
2017-04-08T03:15:13.902Z,1022.9
2017-04-08T03:16:16.755Z,1022.9
2017-04-08T03:17:19.102Z,1022.9
2017-04-08T03:18:22.254Z,1022.9
2017-04-08T03:19:24.601Z,1022.9
2017-04-08T03:20:26.942Z,1022.9
2017-04-08T03:21:29.794Z,1022.9
2017-04-08T03:22:32.645Z,1022.9
2017-04-08T03:24:38.204Z,1022.9
2017-04-08T03:25:40.550Z,1022.9
2017-04-08T03:26:42.901Z,1022.9
2017-04-08T03:27:45.754Z,1022.9
2017-04-08T03:28:48.606Z,1022.9
2017-04-08T03:29:51.259Z,1022.9
2017-04-08T03:30:53.603Z,1022.8
2017-04-08T03:31:56.454Z,1022.9
2017-04-08T03:32:58.801Z,1022.9
2017-04-08T03:34:01.651Z,1022.9
2017-04-08T03:35:04.758Z,1022.9
2017-04-08T03:36:07.105Z,1022.9
2017-04-08T03:37:09.817Z,1022.9
2017-04-08T03:38:12.536Z,1022.9
2017-04-08T03:39:14.747Z,1023
2017-04-08T03:40:17.898Z,1022.9
2017-04-08T03:41:20.249Z,1022.9
2017-04-08T03:42:23.099Z,1023
2017-04-08T03:43:25.444Z,1023
2017-04-08T03:44:28.299Z,1023
2017-04-08T03:45:31.261Z,1023
2017-04-08T03:46:33.607Z,1023
2017-04-08T03:47:35.951Z,1023
2017-04-08T03:48:38.800Z,1023
2017-04-08T03:49:41.651Z,1023
2017-04-08T03:50:44.297Z,1023
2017-04-08T03:51:46.644Z,1023
2017-04-08T03:52:49.492Z,1023.1
2017-04-08T03:53:52.344Z,1023
2017-04-08T03:54:54.687Z,1023.1
2017-04-08T03:55:57.656Z,1023.1
2017-04-08T03:57:00.004Z,1023.1
2017-04-08T03:58:02.853Z,1023.1
2017-04-08T03:59:05.207Z,1023.1
2017-04-08T04:00:08.059Z,1023.1
2017-04-08T04:01:11.167Z,1023.1
2017-04-08T04:02:13.523Z,1023.1
2017-04-08T04:03:15.868Z,1023.1
2017-04-08T04:04:18.714Z,1023.1
2017-04-08T04:05:21.067Z,1023.1
2017-04-08T04:06:24.221Z,1023.1
2017-04-08T04:07:26.568Z,1023.2
2017-04-08T04:08:29.418Z,1023.2
2017-04-08T04:09:31.768Z,1023.2
2017-04-08T04:10:34.618Z,1023.2
2017-04-08T04:11:37.636Z,1023.2
2017-04-08T04:12:39.979Z,1023.2
2017-04-08T04:13:42.323Z,1023.2
2017-04-08T04:14:45.175Z,1023.2
2017-04-08T04:15:48.057Z,1023.2
2017-04-08T04:16:50.564Z,1023.2
2017-04-08T04:17:52.911Z,1023.2
2017-04-08T04:18:55.758Z,1023.2
2017-04-08T04:19:58.602Z,1023.3
2017-04-08T04:21:00.951Z,1023.3
2017-04-08T04:22:04.104Z,1023.3
2017-04-08T04:23:06.452Z,1023.3
2017-04-08T04:25:11.711Z,1023.4
2017-04-08T04:26:14.553Z,1023.3
2017-04-08T04:27:17.206Z,1023.4
2017-04-08T04:28:19.560Z,1023.4
2017-04-08T04:29:22.151Z,1023.3
2017-04-08T04:30:25.002Z,1023.3
2017-04-08T04:31:27.845Z,1023.4
2017-04-08T04:32:30.493Z,1023.4
2017-04-08T04:33:32.851Z,1023.4
2017-04-08T04:34:35.706Z,1023.4
2017-04-08T04:35:38.055Z,1023.4
2017-04-08T04:36:40.906Z,1023.4
2017-04-08T04:38:46.409Z,1023.4
2017-04-08T04:39:48.856Z,1023.4
2017-04-08T04:40:51.706Z,1023.4
2017-04-08T04:41:54.283Z,1023.4
2017-04-08T04:42:56.999Z,1023.4
2017-04-08T04:43:59.644Z,1023.4
2017-04-08T04:45:02.001Z,1023.5
2017-04-08T04:46:04.855Z,1023.4
2017-04-08T04:47:07.437Z,1023.4
2017-04-08T04:49:12.986Z,1023.4
2017-04-08T04:50:15.565Z,1023.4
2017-04-08T04:51:17.911Z,1023.4
2017-04-08T04:52:20.622Z,1023.4
2017-04-08T04:53:23.476Z,1023.4
2017-04-08T04:54:26.153Z,1023.4
2017-04-08T04:55:28.501Z,1023.4
2017-04-08T04:56:31.353Z,1023.5
2017-04-08T04:57:34.200Z,1023.5
2017-04-08T04:58:36.560Z,1023.5
2017-04-08T04:59:39.712Z,1023.4
2017-04-08T05:00:42.062Z,1023.5
2017-04-08T05:01:44.441Z,1023.5
2017-04-08T05:02:47.309Z,1023.5
2017-04-08T05:03:49.669Z,1023.5
2017-04-08T05:04:52.827Z,1023.5
2017-04-08T05:05:55.183Z,1023.5
2017-04-08T05:06:58.034Z,1023.5
2017-04-08T05:08:00.384Z,1023.5
2017-04-08T05:09:03.301Z,1023.5
2017-04-08T05:10:05.950Z,1023.5
2017-04-08T05:11:08.315Z,1023.5
2017-04-08T05:12:11.168Z,1023.5
2017-04-08T05:13:13.525Z,1023.6
2017-04-08T05:14:16.374Z,1023.5
2017-04-08T05:15:19.471Z,1023.5
2017-04-08T05:16:21.684Z,1023.5
2017-04-08T05:17:24.534Z,1023.5
2017-04-08T05:18:26.881Z,1023.5
2017-04-08T05:19:29.731Z,1023.6
2017-04-08T05:20:32.330Z,1023.5
2017-04-08T05:21:35.045Z,1023.6
2017-04-08T05:22:37.392Z,1023.5
2017-04-08T05:23:40.112Z,1023.5
2017-04-08T05:24:42.959Z,1023.6
2017-04-08T05:25:46.064Z,1023.5
2017-04-08T05:26:48.412Z,1023.6
2017-04-08T05:27:50.764Z,1023.7
2017-04-08T05:28:53.616Z,1023.7
2017-04-08T05:29:55.962Z,1023.7
2017-04-08T05:30:59.117Z,1023.7
2017-04-08T05:32:01.461Z,1023.7
2017-04-08T05:33:04.332Z,1023.8
2017-04-08T05:34:06.680Z,1023.8
2017-04-08T05:35:09.536Z,1023.8
2017-04-08T05:36:12.185Z,1023.8
2017-04-08T05:37:14.530Z,1023.8
2017-04-08T05:38:17.380Z,1023.8
2017-04-08T05:39:20.227Z,1023.8
2017-04-08T05:40:22.943Z,1023.8
2017-04-08T05:42:28.441Z,1023.9
2017-04-08T05:44:33.201Z,1023.8
2017-04-08T05:45:36.048Z,1023.9
2017-04-08T05:46:38.390Z,1023.9
2017-04-08T05:47:41.537Z,1023.9
2017-04-08T05:48:43.892Z,1023.9
2017-04-08T05:49:46.740Z,1023.9
2017-04-08T05:50:49.085Z,1024
2017-04-08T05:51:51.935Z,1023.9
2017-04-08T05:52:55.093Z,1023.9
2017-04-08T05:53:57.440Z,1024
2017-04-08T05:54:59.794Z,1024
2017-04-08T05:56:02.644Z,1024
2017-04-08T05:57:05.008Z,1024
2017-04-08T05:58:08.157Z,1024
2017-04-08T05:59:10.502Z,1024
2017-04-08T06:00:12.910Z,1024
2017-04-08T06:01:15.765Z,1024
2017-04-08T06:02:18.487Z,1024.1
2017-04-08T06:03:21.088Z,1024
2017-04-08T06:04:23.936Z,1024.1
2017-04-08T06:05:26.281Z,1024.1
2017-04-08T06:06:29.136Z,1024.1
2017-04-08T06:07:31.483Z,1024.1
2017-04-08T06:08:34.505Z,1024.1
2017-04-08T06:09:36.856Z,1024.1
2017-04-08T06:10:39.704Z,1024.1
2017-04-08T06:11:42.053Z,1024.1
2017-04-08T06:12:44.903Z,1024.1
2017-04-08T06:13:48.056Z,1024.2
2017-04-08T06:14:50.407Z,1024.2
2017-04-08T06:15:52.756Z,1024.1
2017-04-08T06:16:55.643Z,1024.1
2017-04-08T06:17:57.988Z,1024.1
2017-04-08T06:19:01.090Z,1024.1
2017-04-08T06:20:03.440Z,1024.1
2017-04-08T06:21:06.294Z,1024.1
2017-04-08T06:22:08.644Z,1024.1
2017-04-08T06:23:11.491Z,1024.2
2017-04-08T06:24:14.668Z,1024.2
2017-04-08T06:25:17.017Z,1024.2
2017-04-08T06:26:19.369Z,1024.1
2017-04-08T06:28:24.624Z,1024.1
2017-04-08T06:29:27.735Z,1024.2
2017-04-08T06:30:30.082Z,1024.2
2017-04-08T06:31:32.927Z,1024.2
2017-04-08T06:32:35.271Z,1024.3
2017-04-08T06:33:38.115Z,1024.2
2017-04-08T06:34:41.215Z,1024.3
2017-04-08T06:35:43.560Z,1024.2
2017-04-08T06:36:45.779Z,1024.3
2017-04-08T06:37:48.631Z,1024.3
2017-04-08T06:38:51.490Z,1024.3
2017-04-08T06:39:54.088Z,1024.4
2017-04-08T06:40:56.436Z,1024.4
2017-04-08T06:41:59.208Z,1024.4
2017-04-08T06:43:02.057Z,1024.3
2017-04-08T06:44:04.405Z,1024.4
2017-04-08T06:45:07.577Z,1024.4
2017-04-08T06:46:09.931Z,1024.4
2017-04-08T06:47:12.645Z,1024.4
2017-04-08T06:48:15.356Z,1024.4
2017-04-08T06:49:17.704Z,1024.4
2017-04-08T06:50:20.807Z,1024.4
2017-04-08T06:51:23.157Z,1024.4
2017-04-08T06:52:25.874Z,1024.4
2017-04-08T06:53:28.286Z,1024.4
2017-04-08T06:54:31.140Z,1024.4
2017-04-08T06:55:34.242Z,1024.4
2017-04-08T06:56:36.592Z,1024.4
2017-04-08T06:57:39.307Z,1024.4
2017-04-08T06:58:41.661Z,1024.4
2017-04-08T06:59:44.512Z,1024.4
2017-04-08T07:00:47.667Z,1024.4
2017-04-08T07:01:50.012Z,1024.4
2017-04-08T07:02:52.354Z,1024.4
2017-04-08T07:03:55.211Z,1024.4
2017-04-08T07:04:57.559Z,1024.5
2017-04-08T07:06:00.732Z,1024.5
2017-04-08T07:07:03.094Z,1024.5
2017-04-08T07:08:05.952Z,1024.5
2017-04-08T07:09:08.299Z,1024.5
2017-04-08T07:10:11.151Z,1024.5
2017-04-08T07:11:13.750Z,1024.5
2017-04-08T07:12:16.602Z,1024.5
2017-04-08T07:13:18.942Z,1024.5
2017-04-08T07:15:24.194Z,1024.5
2017-04-08T07:16:27.301Z,1024.5
2017-04-08T07:17:29.642Z,1024.5
2017-04-08T07:18:32.358Z,1024.6
2017-04-08T07:19:35.204Z,1024.5
2017-04-08T07:20:37.548Z,1024.5
2017-04-08T07:21:40.652Z,1024.6
2017-04-08T07:22:42.865Z,1024.6
2017-04-08T07:23:45.716Z,1024.6
2017-04-08T07:24:48.121Z,1024.5
2017-04-08T07:25:50.970Z,1024.6
2017-04-08T07:26:53.936Z,1024.6
2017-04-08T07:27:56.511Z,1024.6
2017-04-08T07:28:59.223Z,1024.5
2017-04-08T07:30:01.571Z,1024.5
2017-04-08T07:31:04.433Z,1024.5
2017-04-08T07:32:07.042Z,1024.6
2017-04-08T07:34:12.162Z,1024.5
2017-04-08T07:35:15.005Z,1024.5
2017-04-08T07:36:17.852Z,1024.6
2017-04-08T07:37:20.600Z,1024.6
2017-04-08T07:38:22.947Z,1024.7
2017-04-08T07:39:25.795Z,1024.6
2017-04-08T07:40:28.146Z,1024.6
2017-04-08T07:41:30.998Z,1024.6
2017-04-08T07:42:34.148Z,1024.7
2017-04-08T07:43:36.495Z,1024.6
2017-04-08T07:44:38.844Z,1024.7
2017-04-08T07:45:41.699Z,1024.6
2017-04-08T07:46:44.553Z,1024.7
2017-04-08T07:47:47.149Z,1024.7
2017-04-08T07:48:49.495Z,1024.7
2017-04-08T07:50:54.750Z,1024.8
2017-04-08T07:51:57.510Z,1024.8
2017-04-08T07:53:00.662Z,1024.8
2017-04-08T07:54:03.027Z,1024.7
2017-04-08T07:56:08.285Z,1024.7
2017-04-08T07:57:11.001Z,1024.7
2017-04-08T07:58:14.154Z,1024.7
2017-04-08T07:59:16.505Z,1024.8
2017-04-08T08:00:18.857Z,1024.8
2017-04-08T08:01:21.712Z,1024.8
2017-04-08T08:02:24.438Z,1024.7
2017-04-08T08:03:27.037Z,1024.8
2017-04-08T08:04:29.887Z,1024.8
2017-04-08T08:05:32.236Z,1024.8
2017-04-08T08:06:35.093Z,1024.8
2017-04-08T08:07:37.443Z,1024.8
2017-04-08T08:08:40.554Z,1024.8
2017-04-08T08:09:42.908Z,1024.9
2017-04-08T08:10:45.759Z,1024.9
2017-04-08T08:11:48.103Z,1024.8
2017-04-08T08:14:56.514Z,1024.8
2017-04-08T08:15:58.859Z,1024.9
2017-04-08T08:17:01.710Z,1024.9
2017-04-08T08:18:04.560Z,1024.9
2017-04-08T08:19:06.906Z,1024.9
2017-04-08T08:20:10.056Z,1024.9
2017-04-08T08:21:12.268Z,1024.9
2017-04-08T08:22:15.114Z,1025
2017-04-08T08:23:17.529Z,1025
2017-04-08T08:24:20.380Z,1024.9
2017-04-08T08:25:23.491Z,1024.9
2017-04-08T08:26:25.840Z,1024.9
2017-04-08T08:27:28.184Z,1024.9
2017-04-08T08:28:30.899Z,1025
2017-04-08T08:29:33.755Z,1024.9
2017-04-08T08:30:36.908Z,1024.9
2017-04-08T08:31:39.260Z,1025
2017-04-08T08:33:44.242Z,1024.9
2017-04-08T08:34:47.105Z,1025
2017-04-08T08:35:50.262Z,1025
2017-04-08T08:37:55.018Z,1025
2017-04-08T08:38:57.874Z,1025
2017-04-08T08:40:00.229Z,1025
2017-04-08T08:41:03.327Z,1024.9
2017-04-08T08:42:05.679Z,1024.9
2017-04-08T08:43:08.394Z,1025
2017-04-08T08:44:11.244Z,1025
2017-04-08T08:45:13.591Z,1025
2017-04-08T08:46:16.694Z,1025
2017-04-08T08:47:19.040Z,1024.9
2017-04-08T08:48:21.762Z,1025
2017-04-08T08:49:24.347Z,1025
2017-04-08T08:50:27.194Z,1025
2017-04-08T08:51:30.160Z,1025
2017-04-08T08:52:32.370Z,1025
2017-04-08T08:53:35.216Z,1025
2017-04-08T08:55:40.471Z,1025.1
2017-04-08T08:56:43.497Z,1025
2017-04-08T08:57:45.848Z,1025
2017-04-08T08:58:48.696Z,1025.1
2017-04-08T09:00:53.951Z,1025
2017-04-08T09:01:57.050Z,1025
2017-04-08T09:02:59.400Z,1025
2017-04-08T09:04:02.250Z,1025
2017-04-08T09:05:04.598Z,1025
2017-04-08T09:06:07.321Z,1025.1
2017-04-08T09:07:10.290Z,1025.1
2017-04-08T09:08:12.642Z,1025
2017-04-08T09:09:15.491Z,1025.1
2017-04-08T09:10:18.339Z,1025.1
2017-04-08T09:11:20.681Z,1025.1
2017-04-08T09:12:23.698Z,1025.1
2017-04-08T09:13:26.038Z,1025.1
2017-04-08T09:14:28.756Z,1025.1
2017-04-08T09:15:31.612Z,1025.1
2017-04-08T09:16:33.960Z,1025.1
2017-04-08T09:17:37.127Z,1025.1
2017-04-08T09:18:39.477Z,1025.1
2017-04-08T09:19:42.196Z,1025.1
2017-04-08T09:20:45.042Z,1025.1
2017-04-08T09:21:47.753Z,1025.1
2017-04-08T09:22:50.350Z,1025.1
2017-04-08T09:23:53.193Z,1025.1
2017-04-08T09:24:55.541Z,1025.1
2017-04-08T09:25:58.392Z,1025.1
2017-04-08T09:27:01.239Z,1025.1
2017-04-08T09:28:03.702Z,1025.1
2017-04-08T09:29:06.549Z,1025.1
2017-04-08T09:30:08.900Z,1025.1
2017-04-08T09:31:11.751Z,1025.1
2017-04-08T09:33:17.308Z,1025.1
2017-04-08T09:34:19.657Z,1025.2
2017-04-08T09:35:22.543Z,1025.1
2017-04-08T09:37:27.666Z,1025.2
2017-04-08T09:38:30.819Z,1025.1
2017-04-08T09:39:33.172Z,1025.1
2017-04-08T09:40:36.025Z,1025.1
2017-04-08T09:41:38.381Z,1025.2
2017-04-08T09:42:41.231Z,1025.2
2017-04-08T09:43:44.340Z,1025.2
2017-04-08T09:44:46.690Z,1025.2
2017-04-08T09:45:49.536Z,1025.2
2017-04-08T09:46:51.880Z,1025.2
2017-04-08T09:47:54.728Z,1025.2
2017-04-08T09:48:57.840Z,1025.2
2017-04-08T09:50:00.193Z,1025.2
2017-04-08T09:51:02.924Z,1025.2
2017-04-08T09:52:05.277Z,1025.2
2017-04-08T09:53:08.018Z,1025.2
2017-04-08T09:54:11.120Z,1025.3
2017-04-08T09:55:13.333Z,1025.2
2017-04-08T09:56:16.181Z,1025.2
2017-04-08T09:57:19.036Z,1025.2
2017-04-08T09:58:21.753Z,1025.2
2017-04-08T09:59:24.407Z,1025.2
2017-04-08T10:00:26.753Z,1025.2
2017-04-08T10:01:29.598Z,1025.2
2017-04-08T10:02:32.451Z,1025.2
2017-04-08T10:03:34.797Z,1025.1
2017-04-08T10:04:37.955Z,1025.1
2017-04-08T10:05:40.355Z,1025.2
2017-04-08T10:06:43.207Z,1025.2
2017-04-08T10:07:45.920Z,1025.2
2017-04-08T10:08:48.276Z,1025.2
2017-04-08T10:09:51.426Z,1025.1
2017-04-08T10:10:53.769Z,1025.2
2017-04-08T10:11:56.621Z,1025.2
2017-04-08T10:12:58.972Z,1025.2
2017-04-08T10:14:01.830Z,1025.2
2017-04-08T10:15:04.849Z,1025.1
2017-04-08T10:16:07.258Z,1025.1
2017-04-08T10:17:10.108Z,1025.1
2017-04-08T10:18:12.459Z,1025.1
2017-04-08T10:19:15.312Z,1025.2
2017-04-08T10:20:18.411Z,1025.1
2017-04-08T10:21:20.759Z,1025.2
2017-04-08T10:22:23.617Z,1025.2
2017-04-08T10:23:25.975Z,1025.2
2017-04-08T10:24:28.826Z,1025.1
2017-04-08T10:26:34.368Z,1025.1
2017-04-08T10:27:36.721Z,1025.1
2017-04-08T10:28:39.578Z,1025.2
2017-04-08T10:30:44.844Z,1025.1
2017-04-08T10:31:48.000Z,1025.1
2017-04-08T10:32:50.351Z,1025.1
2017-04-08T10:34:55.606Z,1025.1
2017-04-08T10:35:58.327Z,1025.1
2017-04-08T10:37:01.425Z,1025.1
2017-04-08T10:38:03.652Z,1025.1
2017-04-08T10:39:06.500Z,1025
2017-04-08T10:40:09.378Z,1025
2017-04-08T10:41:12.092Z,1025
2017-04-08T10:42:14.746Z,1025
2017-04-08T10:43:17.602Z,1025
2017-04-08T10:44:19.949Z,1025
2017-04-08T10:45:22.794Z,1025
2017-04-08T10:46:25.674Z,1025
2017-04-08T10:47:28.276Z,1025
2017-04-08T10:48:30.995Z,1025
2017-04-08T10:49:01.368Z,1025
2017-04-08T10:49:33.386Z,1025
2017-04-08T10:50:36.110Z,1024.9
2017-04-08T10:51:38.956Z,1024.9
2017-04-08T10:52:42.053Z,1024.9
2017-04-08T10:53:44.262Z,1024.9
2017-04-08T10:54:47.108Z,1024.9
2017-04-08T10:55:49.960Z,1024.9
2017-04-08T10:56:52.312Z,1024.9
2017-04-08T10:57:55.464Z,1024.8
2017-04-08T10:58:57.807Z,1024.8
2017-04-08T11:00:00.655Z,1024.8
2017-04-08T11:01:03.508Z,1024.8
2017-04-08T11:02:05.891Z,1024.8
2017-04-08T11:03:09.044Z,1024.8
2017-04-08T11:04:11.388Z,1024.8
2017-04-08T11:05:14.247Z,1024.8
2017-04-08T11:06:16.591Z,1024.8
2017-04-08T11:07:19.442Z,1024.8
2017-04-08T11:08:22.595Z,1024.8
2017-04-08T11:09:24.938Z,1024.8
2017-04-08T11:10:27.791Z,1024.7
2017-04-08T11:11:30.133Z,1024.7
2017-04-08T11:12:32.982Z,1024.7
2017-04-08T11:13:36.130Z,1024.7
2017-04-08T11:14:38.472Z,1024.7
2017-04-08T11:15:41.321Z,1024.7
2017-04-08T11:16:43.865Z,1024.7
2017-04-08T11:17:46.720Z,1024.7
2017-04-08T11:18:49.366Z,1024.7
2017-04-08T11:19:51.711Z,1024.7
2017-04-08T11:20:54.566Z,1024.7
2017-04-08T11:21:57.416Z,1024.7
2017-04-08T11:23:00.264Z,1024.7
2017-04-08T11:24:03.229Z,1024.7
2017-04-08T11:25:05.572Z,1024.7
2017-04-08T11:26:07.919Z,1024.7
2017-04-08T11:27:10.635Z,1024.7
2017-04-08T11:28:13.488Z,1024.7
2017-04-08T11:29:16.596Z,1024.7
2017-04-08T11:30:18.945Z,1024.7
2017-04-08T11:31:21.661Z,1024.8
2017-04-08T11:32:24.519Z,1024.7
2017-04-08T11:33:26.862Z,1024.8
2017-04-08T11:34:29.880Z,1024.7
2017-04-08T11:35:32.737Z,1024.7
2017-04-08T11:36:35.082Z,1024.7
2017-04-08T11:37:37.935Z,1024.7
2017-04-08T11:38:40.787Z,1024.6
2017-04-08T11:39:43.435Z,1024.6
2017-04-08T11:40:46.287Z,1024.6
2017-04-08T11:41:48.633Z,1024.6
2017-04-08T11:42:51.485Z,1024.6
2017-04-08T11:43:54.335Z,1024.6
2017-04-08T11:44:56.986Z,1024.6
2017-04-08T11:45:59.837Z,1024.6
2017-04-08T11:47:02.189Z,1024.6
2017-04-08T11:48:05.039Z,1024.6
2017-04-08T11:49:07.890Z,1024.5
2017-04-08T11:50:10.486Z,1024.5
2017-04-08T11:51:13.335Z,1024.5
2017-04-08T11:52:15.683Z,1024.5
2017-04-08T11:53:18.533Z,1024.5
2017-04-08T11:54:21.380Z,1024.5
2017-04-08T11:55:23.976Z,1024.5
2017-04-08T11:56:26.827Z,1024.5
2017-04-08T11:57:29.548Z,1024.4
2017-04-08T11:59:34.804Z,1024.5
2017-04-08T12:00:37.953Z,1024.4
2017-04-08T12:01:40.296Z,1024.4
2017-04-08T12:02:43.144Z,1024.5
2017-04-08T12:03:45.486Z,1024.4
2017-04-08T12:04:48.345Z,1024.5
2017-04-08T12:05:51.450Z,1024.5
2017-04-08T12:06:53.798Z,1024.5
2017-04-08T12:07:56.651Z,1024.5
2017-04-08T12:08:59.002Z,1024.4
2017-04-08T12:10:01.860Z,1024.5
2017-04-08T12:11:05.012Z,1024.5
2017-04-08T12:13:09.762Z,1024.4
2017-04-08T12:14:12.643Z,1024.4
2017-04-08T12:15:15.489Z,1024.4
2017-04-08T12:16:18.587Z,1024.4
2017-04-08T12:17:21.002Z,1024.4
2017-04-08T12:18:23.347Z,1024.4
2017-04-08T12:19:26.222Z,1024.4
2017-04-08T12:20:29.071Z,1024.4
2017-04-08T12:21:31.717Z,1024.3
2017-04-08T12:22:34.566Z,1024.4
2017-04-08T12:23:36.965Z,1024.3
2017-04-08T12:24:39.812Z,1024.4
2017-04-08T12:25:42.661Z,1024.3
2017-04-08T12:26:45.311Z,1024.3
2017-04-08T12:27:48.156Z,1024.4
2017-04-08T12:28:50.871Z,1024.3
2017-04-08T12:29:53.084Z,1024.3
2017-04-08T12:30:55.929Z,1024.3
2017-04-08T12:31:59.033Z,1024.3
2017-04-08T12:33:01.418Z,1024.3
2017-04-08T12:34:04.269Z,1024.3
2017-04-08T12:35:06.988Z,1024.3
2017-04-08T12:36:09.838Z,1024.3
2017-04-08T12:37:12.439Z,1024.3
2017-04-08T12:38:15.199Z,1024.3
2017-04-08T12:40:20.522Z,1024.3
2017-04-08T12:41:23.373Z,1024.3
2017-04-08T12:42:25.978Z,1024.3
2017-04-08T12:43:28.323Z,1024.3
2017-04-08T12:44:31.171Z,1024.3
2017-04-08T12:45:34.021Z,1024.3
2017-04-08T12:46:36.868Z,1024.3
2017-04-08T12:47:39.463Z,1024.3
2017-04-08T12:48:42.317Z,1024.3
2017-04-08T12:49:44.668Z,1024.3
2017-04-08T12:50:47.751Z,1024.3
2017-04-08T12:51:50.094Z,1024.3
2017-04-08T12:52:53.192Z,1024.3
2017-04-08T12:53:55.566Z,1024.3
2017-04-08T12:54:58.473Z,1024.3
2017-04-08T12:56:00.821Z,1024.3
2017-04-08T12:57:03.741Z,1024.3
2017-04-08T12:59:09.299Z,1024.3
2017-04-08T13:00:11.752Z,1024.3
2017-04-08T13:01:14.604Z,1024.3
2017-04-08T13:02:17.469Z,1024.3
2017-04-08T13:04:22.978Z,1024.3
2017-04-08T13:06:28.241Z,1024.3
2017-04-08T13:07:31.090Z,1024.3
2017-04-08T13:08:33.433Z,1024.4
2017-04-08T13:09:36.598Z,1024.3
2017-04-08T13:10:38.948Z,1024.3
2017-04-08T13:11:41.802Z,1024.3
2017-04-08T13:12:44.647Z,1024.4
2017-04-08T13:13:47.000Z,1024.3
2017-04-08T13:14:50.150Z,1024.4
2017-04-08T13:15:52.498Z,1024.3
2017-04-08T13:16:55.352Z,1024.3
2017-04-08T13:17:57.929Z,1024.4
2017-04-08T13:20:03.433Z,1024.3
2017-04-08T13:21:06.149Z,1024.3
2017-04-08T13:22:09.000Z,1024.4
2017-04-08T13:23:11.723Z,1024.4
2017-04-08T13:24:14.458Z,1024.3
2017-04-08T13:25:17.112Z,1024.3
2017-04-08T13:26:19.459Z,1024.3
2017-04-08T13:27:22.308Z,1024.3
2017-04-08T13:28:25.159Z,1024.3
2017-04-08T13:29:27.514Z,1024.3
2017-04-08T13:30:30.624Z,1024.3
2017-04-08T13:31:32.978Z,1024.3
2017-04-08T13:32:35.830Z,1024.3
2017-04-08T13:33:38.680Z,1024.3
2017-04-08T13:34:41.522Z,1024.3
2017-04-08T13:35:44.539Z,1024.3
2017-04-08T13:36:46.884Z,1024.3
2017-04-08T13:38:52.142Z,1024.3
2017-04-08T13:39:54.993Z,1024.3
2017-04-08T13:40:57.589Z,1024.3
2017-04-08T13:42:00.439Z,1024.3